sensor_id;sensor_type;location;lat;lon;timestamp;P1;durP1;ratioP1;P2;durP2;ratioP2
20421;SDS011;10370;53.102;18.034;2023-02-12T00:02:37;51.93;;;18.00;;
20421;SDS011;10370;53.102;18.034;2023-02-12T00:08:05;30.23;;;12.17;;
20421;SDS011;10370;53.102;18.034;2023-02-12T00:13:33;28.53;;;10.70;;
20421;SDS011;10370;53.102;18.034;2023-02-12T00:18:58;118.83;;;45.43;;
20421;SDS011;10370;53.102;18.034;2023-02-12T00:24:23;33.47;;;14.00;;
20421;SDS011;10370;53.102;18.034;2023-02-12T00:29:50;39.90;;;17.37;;
20421;SDS011;10370;53.102;18.034;2023-02-12T00:35:18;57.70;;;21.97;;
20421;SDS011;10370;53.102;18.034;2023-02-12T00:40:43;49.07;;;19.73;;
20421;SDS011;10370;53.102;18.034;2023-02-12T00:46:17;53.80;;;19.13;;
20421;SDS011;10370;53.102;18.034;2023-02-12T00:51:42;54.20;;;19.93;;
20421;SDS011;10370;53.102;18.034;2023-02-12T00:57:09;50.17;;;19.57;;
20421;SDS011;10370;53.102;18.034;2023-02-12T01:02:38;48.60;;;19.37;;
20421;SDS011;10370;53.102;18.034;2023-02-12T01:08:03;83.97;;;30.03;;
20421;SDS011;10370;53.102;18.034;2023-02-12T01:13:29;77.20;;;31.20;;
20421;SDS011;10370;53.102;18.034;2023-02-12T01:18:54;53.93;;;22.93;;
20421;SDS011;10370;53.102;18.034;2023-02-12T01:24:19;74.30;;;21.53;;
20421;SDS011;10370;53.102;18.034;2023-02-12T01:29:45;45.33;;;16.27;;
20421;SDS011;10370;53.102;18.034;2023-02-12T01:35:10;142.47;;;15.50;;
20421;SDS011;10370;53.102;18.034;2023-02-12T01:40:35;54.60;;;17.97;;
20421;SDS011;10370;53.102;18.034;2023-02-12T01:46:00;93.47;;;19.93;;
20421;SDS011;10370;53.102;18.034;2023-02-12T01:51:24;79.77;;;18.30;;
20421;SDS011;10370;53.102;18.034;2023-02-12T01:56:50;57.30;;;16.23;;
20421;SDS011;10370;53.102;18.034;2023-02-12T02:02:15;62.50;;;18.57;;
20421;SDS011;10370;53.102;18.034;2023-02-12T02:07:42;68.20;;;18.07;;
20421;SDS011;10370;53.102;18.034;2023-02-12T02:13:07;61.17;;;19.10;;
20421;SDS011;10370;53.102;18.034;2023-02-12T02:18:55;67.07;;;19.93;;
20421;SDS011;10370;53.102;18.034;2023-02-12T02:30:33;81.57;;;18.20;;
20421;SDS011;10370;53.102;18.034;2023-02-12T02:36:14;105.23;;;18.00;;
20421;SDS011;10370;53.102;18.034;2023-02-12T02:41:51;81.47;;;18.83;;
20421;SDS011;10370;53.102;18.034;2023-02-12T02:47:25;153.23;;;36.87;;
20421;SDS011;10370;53.102;18.034;2023-02-12T02:52:59;68.50;;;24.47;;
20421;SDS011;10370;53.102;18.034;2023-02-12T02:58:35;56.80;;;21.20;;
20421;SDS011;10370;53.102;18.034;2023-02-12T03:04:03;76.63;;;27.87;;
20421;SDS011;10370;53.102;18.034;2023-02-12T03:09:44;82.77;;;32.37;;
20421;SDS011;10370;53.102;18.034;2023-02-12T03:15:17;67.40;;;26.67;;
20421;SDS011;10370;53.102;18.034;2023-02-12T03:20:58;91.40;;;30.60;;
20421;SDS011;10370;53.102;18.034;2023-02-12T03:54:41;135.67;;;25.90;;
20421;SDS011;10370;53.102;18.034;2023-02-12T04:00:08;176.90;;;22.73;;
20421;SDS011;10370;53.102;18.034;2023-02-12T04:05:33;93.17;;;20.07;;
20421;SDS011;10370;53.102;18.034;2023-02-12T04:11:16;84.70;;;20.00;;
20421;SDS011;10370;53.102;18.034;2023-02-12T04:16:50;135.57;;;23.40;;
20421;SDS011;10370;53.102;18.034;2023-02-12T04:27:59;83.90;;;20.70;;
20421;SDS011;10370;53.102;18.034;2023-02-12T04:34:23;142.87;;;24.80;;
20421;SDS011;10370;53.102;18.034;2023-02-12T04:39:37;188.20;;;29.63;;
20421;SDS011;10370;53.102;18.034;2023-02-12T04:45:03;113.50;;;28.67;;
20421;SDS011;10370;53.102;18.034;2023-02-12T04:50:41;144.87;;;27.37;;
20421;SDS011;10370;53.102;18.034;2023-02-12T04:56:10;170.63;;;27.23;;
20421;SDS011;10370;53.102;18.034;2023-02-12T05:01:35;134.50;;;27.57;;
20421;SDS011;10370;53.102;18.034;2023-02-12T05:07:01;100.60;;;29.17;;
20421;SDS011;10370;53.102;18.034;2023-02-12T05:12:28;145.50;;;38.57;;
20421;SDS011;10370;53.102;18.034;2023-02-12T05:17:53;142.97;;;32.00;;
20421;SDS011;10370;53.102;18.034;2023-02-12T05:23:19;104.53;;;32.37;;
20421;SDS011;10370;53.102;18.034;2023-02-12T05:28:44;120.17;;;33.00;;
20421;SDS011;10370;53.102;18.034;2023-02-12T05:34:10;120.67;;;37.53;;
20421;SDS011;10370;53.102;18.034;2023-02-12T05:39:35;116.50;;;36.27;;
20421;SDS011;10370;53.102;18.034;2023-02-12T05:45:01;114.27;;;36.00;;
20421;SDS011;10370;53.102;18.034;2023-02-12T05:50:26;114.77;;;36.90;;
20421;SDS011;10370;53.102;18.034;2023-02-12T05:55:51;147.90;;;42.13;;
20421;SDS011;10370;53.102;18.034;2023-02-12T06:01:15;212.53;;;49.13;;
20421;SDS011;10370;53.102;18.034;2023-02-12T06:06:38;309.70;;;55.70;;
20421;SDS011;10370;53.102;18.034;2023-02-12T06:12:04;253.47;;;54.93;;
20421;SDS011;10370;53.102;18.034;2023-02-12T06:17:33;190.73;;;52.40;;
20421;SDS011;10370;53.102;18.034;2023-02-12T06:22:57;180.57;;;53.03;;
20421;SDS011;10370;53.102;18.034;2023-02-12T06:28:22;185.40;;;53.07;;
20421;SDS011;10370;53.102;18.034;2023-02-12T06:33:46;225.83;;;65.30;;
20421;SDS011;10370;53.102;18.034;2023-02-12T06:39:12;168.30;;;52.03;;
20421;SDS011;10370;53.102;18.034;2023-02-12T06:44:38;171.07;;;53.77;;
20421;SDS011;10370;53.102;18.034;2023-02-12T06:50:03;154.13;;;49.17;;
20421;SDS011;10370;53.102;18.034;2023-02-12T06:55:29;153.10;;;47.23;;
20421;SDS011;10370;53.102;18.034;2023-02-12T07:00:49;103.87;;;37.10;;
20421;SDS011;10370;53.102;18.034;2023-02-12T07:06:15;98.63;;;33.97;;
20421;SDS011;10370;53.102;18.034;2023-02-12T07:11:40;109.00;;;38.03;;
20421;SDS011;10370;53.102;18.034;2023-02-12T07:17:05;120.40;;;39.37;;
20421;SDS011;10370;53.102;18.034;2023-02-12T07:22:36;124.90;;;41.33;;
20421;SDS011;10370;53.102;18.034;2023-02-12T07:28:01;98.40;;;36.50;;
20421;SDS011;10370;53.102;18.034;2023-02-12T07:33:26;75.87;;;29.70;;
20421;SDS011;10370;53.102;18.034;2023-02-12T07:38:53;70.33;;;25.27;;
20421;SDS011;10370;53.102;18.034;2023-02-12T07:44:20;65.37;;;23.57;;
20421;SDS011;10370;53.102;18.034;2023-02-12T07:49:43;54.50;;;20.90;;
20421;SDS011;10370;53.102;18.034;2023-02-12T07:55:09;52.60;;;20.07;;
20421;SDS011;10370;53.102;18.034;2023-02-12T08:00:32;41.27;;;16.70;;
20421;SDS011;10370;53.102;18.034;2023-02-12T08:05:53;33.77;;;14.93;;
20421;SDS011;10370;53.102;18.034;2023-02-12T08:11:17;32.53;;;13.03;;
20421;SDS011;10370;53.102;18.034;2023-02-12T08:16:43;28.47;;;12.47;;
20421;SDS011;10370;53.102;18.034;2023-02-12T08:22:06;24.70;;;11.30;;
20421;SDS011;10370;53.102;18.034;2023-02-12T08:27:29;26.53;;;12.00;;
20421;SDS011;10370;53.102;18.034;2023-02-12T08:32:51;24.73;;;10.93;;
20421;SDS011;10370;53.102;18.034;2023-02-12T08:38:18;19.17;;;8.40;;
20421;SDS011;10370;53.102;18.034;2023-02-12T08:43:39;21.10;;;9.27;;
20421;SDS011;10370;53.102;18.034;2023-02-12T08:49:08;16.33;;;8.67;;
20421;SDS011;10370;53.102;18.034;2023-02-12T08:54:37;21.70;;;9.70;;
20421;SDS011;10370;53.102;18.034;2023-02-12T09:00:04;19.57;;;8.57;;
20421;SDS011;10370;53.102;18.034;2023-02-12T09:05:30;17.13;;;8.20;;
20421;SDS011;10370;53.102;18.034;2023-02-12T09:10:57;14.67;;;7.10;;
20421;SDS011;10370;53.102;18.034;2023-02-12T09:16:26;29.23;;;13.57;;
20421;SDS011;10370;53.102;18.034;2023-02-12T09:21:52;24.13;;;11.53;;
20421;SDS011;10370;53.102;18.034;2023-02-12T09:27:16;22.10;;;10.73;;
20421;SDS011;10370;53.102;18.034;2023-02-12T09:32:39;20.37;;;10.80;;
20421;SDS011;10370;53.102;18.034;2023-02-12T09:38:04;22.47;;;10.40;;
20421;SDS011;10370;53.102;18.034;2023-02-12T09:49:13;24.33;;;11.13;;
20421;SDS011;10370;53.102;18.034;2023-02-12T09:54:47;22.40;;;10.07;;
20421;SDS011;10370;53.102;18.034;2023-02-12T10:05:51;22.77;;;9.67;;
20421;SDS011;10370;53.102;18.034;2023-02-12T10:11:33;25.17;;;11.53;;
20421;SDS011;10370;53.102;18.034;2023-02-12T10:17:31;20.67;;;9.33;;
20421;SDS011;10370;53.102;18.034;2023-02-12T10:29:36;20.83;;;10.07;;
20421;SDS011;10370;53.102;18.034;2023-02-12T10:35:11;31.03;;;10.60;;
20421;SDS011;10370;53.102;18.034;2023-02-12T10:40:38;27.90;;;11.27;;
20421;SDS011;10370;53.102;18.034;2023-02-12T10:46:05;24.13;;;10.60;;
20421;SDS011;10370;53.102;18.034;2023-02-12T10:51:42;32.87;;;12.77;;
20421;SDS011;10370;53.102;18.034;2023-02-12T10:57:28;29.57;;;12.00;;
20421;SDS011;10370;53.102;18.034;2023-02-12T11:03:17;32.70;;;13.33;;
20421;SDS011;10370;53.102;18.034;2023-02-12T11:08:43;46.87;;;18.40;;
20421;SDS011;10370;53.102;18.034;2023-02-12T11:14:16;41.70;;;15.93;;
20421;SDS011;10370;53.102;18.034;2023-02-12T11:19:42;43.93;;;16.97;;
20421;SDS011;10370;53.102;18.034;2023-02-12T11:25:23;43.37;;;15.70;;
20421;SDS011;10370;53.102;18.034;2023-02-12T11:30:50;27.60;;;11.53;;
20421;SDS011;10370;53.102;18.034;2023-02-12T11:36:22;29.83;;;10.93;;
20421;SDS011;10370;53.102;18.034;2023-02-12T11:41:57;46.37;;;15.77;;
20421;SDS011;10370;53.102;18.034;2023-02-12T11:47:26;38.23;;;14.13;;
20421;SDS011;10370;53.102;18.034;2023-02-12T11:52:59;46.00;;;16.33;;
20421;SDS011;10370;53.102;18.034;2023-02-12T11:58:27;36.47;;;14.30;;
20421;SDS011;10370;53.102;18.034;2023-02-12T12:04:27;37.93;;;13.77;;
20421;SDS011;10370;53.102;18.034;2023-02-12T12:09:48;47.47;;;15.93;;
20421;SDS011;10370;53.102;18.034;2023-02-12T12:15:22;54.50;;;20.40;;
20421;SDS011;10370;53.102;18.034;2023-02-12T12:26:36;44.83;;;17.07;;
20421;SDS011;10370;53.102;18.034;2023-02-12T12:32:03;40.37;;;14.73;;
20421;SDS011;10370;53.102;18.034;2023-02-12T12:37:35;35.33;;;14.47;;
20421;SDS011;10370;53.102;18.034;2023-02-12T12:43:13;40.30;;;14.67;;
20421;SDS011;10370;53.102;18.034;2023-02-12T12:48:57;37.90;;;15.67;;
20421;SDS011;10370;53.102;18.034;2023-02-12T13:00:40;34.73;;;15.10;;
20421;SDS011;10370;53.102;18.034;2023-02-12T13:06:09;30.07;;;11.90;;
20421;SDS011;10370;53.102;18.034;2023-02-12T13:17:32;31.60;;;11.37;;
20421;SDS011;10370;53.102;18.034;2023-02-12T13:28:37;28.33;;;9.87;;
20421;SDS011;10370;53.102;18.034;2023-02-12T13:34:04;30.20;;;10.77;;
20421;SDS011;10370;53.102;18.034;2023-02-12T13:39:34;27.70;;;10.57;;
20421;SDS011;10370;53.102;18.034;2023-02-12T13:45:13;30.97;;;10.70;;
20421;SDS011;10370;53.102;18.034;2023-02-12T13:56:06;26.30;;;10.23;;
20421;SDS011;10370;53.102;18.034;2023-02-12T14:01:54;30.37;;;10.23;;
20421;SDS011;10370;53.102;18.034;2023-02-12T14:07:19;29.97;;;10.33;;
20421;SDS011;10370;53.102;18.034;2023-02-12T14:12:46;27.37;;;10.00;;
20421;SDS011;10370;53.102;18.034;2023-02-12T14:18:25;30.63;;;11.30;;
20421;SDS011;10370;53.102;18.034;2023-02-12T14:24:02;29.93;;;12.20;;
20421;SDS011;10370;53.102;18.034;2023-02-12T14:30:00;41.13;;;12.83;;
20421;SDS011;10370;53.102;18.034;2023-02-12T14:35:35;32.13;;;10.37;;
20421;SDS011;10370;53.102;18.034;2023-02-12T14:41:22;29.10;;;8.67;;
20421;SDS011;10370;53.102;18.034;2023-02-12T14:46:59;22.30;;;8.20;;
20421;SDS011;10370;53.102;18.034;2023-02-12T14:52:28;30.03;;;8.10;;
20421;SDS011;10370;53.102;18.034;2023-02-12T14:57:55;31.73;;;10.40;;
20421;SDS011;10370;53.102;18.034;2023-02-12T15:03:26;30.70;;;8.60;;
20421;SDS011;10370;53.102;18.034;2023-02-12T15:09:08;30.83;;;9.30;;
20421;SDS011;10370;53.102;18.034;2023-02-12T15:14:34;34.43;;;10.20;;
20421;SDS011;10370;53.102;18.034;2023-02-12T15:20:06;29.40;;;9.20;;
20421;SDS011;10370;53.102;18.034;2023-02-12T15:25:39;38.93;;;11.40;;
20421;SDS011;10370;53.102;18.034;2023-02-12T15:31:00;34.30;;;10.67;;
20421;SDS011;10370;53.102;18.034;2023-02-12T15:36:30;45.23;;;12.67;;
20421;SDS011;10370;53.102;18.034;2023-02-12T15:41:55;35.80;;;10.73;;
20421;SDS011;10370;53.102;18.034;2023-02-12T15:47:20;31.10;;;10.17;;
20421;SDS011;10370;53.102;18.034;2023-02-12T15:52:47;36.43;;;10.20;;
20421;SDS011;10370;53.102;18.034;2023-02-12T15:58:36;31.67;;;11.03;;
20421;SDS011;10370;53.102;18.034;2023-02-12T16:04:09;38.67;;;12.57;;
20421;SDS011;10370;53.102;18.034;2023-02-12T16:09:31;48.23;;;16.57;;
20421;SDS011;10370;53.102;18.034;2023-02-12T16:14:58;47.67;;;18.17;;
20421;SDS011;10370;53.102;18.034;2023-02-12T16:20:21;40.33;;;15.47;;
20421;SDS011;10370;53.102;18.034;2023-02-12T16:25:51;42.77;;;17.40;;
20421;SDS011;10370;53.102;18.034;2023-02-12T16:31:16;52.57;;;17.90;;
20421;SDS011;10370;53.102;18.034;2023-02-12T16:36:44;53.87;;;20.87;;
20421;SDS011;10370;53.102;18.034;2023-02-12T16:42:13;43.53;;;13.57;;
20421;SDS011;10370;53.102;18.034;2023-02-12T16:47:40;35.83;;;10.83;;
20421;SDS011;10370;53.102;18.034;2023-02-12T16:53:03;28.77;;;9.33;;
20421;SDS011;10370;53.102;18.034;2023-02-12T16:58:41;38.13;;;11.57;;
20421;SDS011;10370;53.102;18.034;2023-02-12T17:04:05;43.07;;;11.87;;
20421;SDS011;10370;53.102;18.034;2023-02-12T17:09:30;43.70;;;12.10;;
20421;SDS011;10370;53.102;18.034;2023-02-12T17:14:55;72.70;;;19.92;;
20421;SDS011;10370;53.102;18.034;2023-02-12T17:20:16;96.87;;;27.93;;
20421;SDS011;10370;53.102;18.034;2023-02-12T17:25:38;48.10;;;12.67;;
20421;SDS011;10370;53.102;18.034;2023-02-12T17:31:01;42.47;;;12.40;;
20421;SDS011;10370;53.102;18.034;2023-02-12T17:36:27;51.40;;;14.97;;
20421;SDS011;10370;53.102;18.034;2023-02-12T17:41:51;41.40;;;11.80;;
20421;SDS011;10370;53.102;18.034;2023-02-12T17:47:15;44.03;;;12.07;;
20421;SDS011;10370;53.102;18.034;2023-02-12T17:52:39;42.67;;;12.80;;
20421;SDS011;10370;53.102;18.034;2023-02-12T17:58:03;49.07;;;14.23;;
20421;SDS011;10370;53.102;18.034;2023-02-12T18:03:29;42.97;;;12.67;;
20421;SDS011;10370;53.102;18.034;2023-02-12T18:08:58;51.00;;;11.90;;
20421;SDS011;10370;53.102;18.034;2023-02-12T18:14:21;46.73;;;13.77;;
20421;SDS011;10370;53.102;18.034;2023-02-12T18:19:44;54.90;;;17.97;;
20421;SDS011;10370;53.102;18.034;2023-02-12T18:25:10;43.73;;;14.80;;
20421;SDS011;10370;53.102;18.034;2023-02-12T18:30:38;40.60;;;14.57;;
20421;SDS011;10370;53.102;18.034;2023-02-12T18:36:05;49.47;;;15.00;;
20421;SDS011;10370;53.102;18.034;2023-02-12T18:41:32;46.53;;;13.90;;
20421;SDS011;10370;53.102;18.034;2023-02-12T18:47:00;40.57;;;13.17;;
20421;SDS011;10370;53.102;18.034;2023-02-12T18:52:25;45.63;;;12.53;;
20421;SDS011;10370;53.102;18.034;2023-02-12T18:57:50;51.60;;;13.40;;
20421;SDS011;10370;53.102;18.034;2023-02-12T19:03:15;52.87;;;14.07;;
20421;SDS011;10370;53.102;18.034;2023-02-12T19:08:40;38.17;;;12.73;;
20421;SDS011;10370;53.102;18.034;2023-02-12T19:14:03;41.83;;;13.50;;
20421;SDS011;10370;53.102;18.034;2023-02-12T19:19:29;38.87;;;13.37;;
20421;SDS011;10370;53.102;18.034;2023-02-12T19:24:50;44.37;;;14.13;;
20421;SDS011;10370;53.102;18.034;2023-02-12T19:30:15;46.40;;;14.37;;
20421;SDS011;10370;53.102;18.034;2023-02-12T19:35:40;46.47;;;14.43;;
20421;SDS011;10370;53.102;18.034;2023-02-12T19:41:06;40.30;;;14.13;;
20421;SDS011;10370;53.102;18.034;2023-02-12T19:46:29;43.60;;;15.43;;
20421;SDS011;10370;53.102;18.034;2023-02-12T19:51:50;44.73;;;16.13;;
20421;SDS011;10370;53.102;18.034;2023-02-12T19:57:12;46.93;;;15.77;;
20421;SDS011;10370;53.102;18.034;2023-02-12T20:02:34;38.83;;;15.03;;
20421;SDS011;10370;53.102;18.034;2023-02-12T20:07:55;40.83;;;14.30;;
20421;SDS011;10370;53.102;18.034;2023-02-12T20:13:17;41.80;;;15.33;;
20421;SDS011;10370;53.102;18.034;2023-02-12T20:18:41;46.07;;;15.00;;
20421;SDS011;10370;53.102;18.034;2023-02-12T20:24:07;40.50;;;14.57;;
20421;SDS011;10370;53.102;18.034;2023-02-12T20:29:31;40.23;;;13.67;;
20421;SDS011;10370;53.102;18.034;2023-02-12T20:34:56;38.33;;;13.73;;
20421;SDS011;10370;53.102;18.034;2023-02-12T20:40:22;40.83;;;13.93;;
20421;SDS011;10370;53.102;18.034;2023-02-12T20:45:50;39.70;;;14.13;;
20421;SDS011;10370;53.102;18.034;2023-02-12T20:51:15;35.80;;;14.27;;
20421;SDS011;10370;53.102;18.034;2023-02-12T20:56:41;40.30;;;14.77;;
20421;SDS011;10370;53.102;18.034;2023-02-12T21:02:09;45.47;;;14.93;;
20421;SDS011;10370;53.102;18.034;2023-02-12T21:07:33;37.07;;;14.17;;
20421;SDS011;10370;53.102;18.034;2023-02-12T21:12:57;40.90;;;14.73;;
20421;SDS011;10370;53.102;18.034;2023-02-12T21:18:18;39.67;;;14.60;;
20421;SDS011;10370;53.102;18.034;2023-02-12T21:23:48;31.33;;;14.30;;
20421;SDS011;10370;53.102;18.034;2023-02-12T21:29:14;35.50;;;15.10;;
20421;SDS011;10370;53.102;18.034;2023-02-12T21:34:39;42.80;;;14.23;;
20421;SDS011;10370;53.102;18.034;2023-02-12T21:40:03;42.13;;;14.73;;
20421;SDS011;10370;53.102;18.034;2023-02-12T21:45:28;44.10;;;16.37;;
20421;SDS011;10370;53.102;18.034;2023-02-12T21:50:53;37.33;;;15.13;;
20421;SDS011;10370;53.102;18.034;2023-02-12T21:56:19;38.10;;;15.03;;
20421;SDS011;10370;53.102;18.034;2023-02-12T22:01:48;39.40;;;14.27;;
20421;SDS011;10370;53.102;18.034;2023-02-12T22:07:11;40.63;;;15.00;;
20421;SDS011;10370;53.102;18.034;2023-02-12T22:12:37;35.90;;;14.00;;
20421;SDS011;10370;53.102;18.034;2023-02-12T22:18:02;34.67;;;13.90;;
20421;SDS011;10370;53.102;18.034;2023-02-12T22:23:28;36.77;;;14.47;;
20421;SDS011;10370;53.102;18.034;2023-02-12T22:28:56;31.37;;;13.80;;
20421;SDS011;10370;53.102;18.034;2023-02-12T22:34:22;33.13;;;13.80;;
20421;SDS011;10370;53.102;18.034;2023-02-12T22:39:49;32.00;;;13.70;;
20421;SDS011;10370;53.102;18.034;2023-02-12T22:45:14;34.57;;;13.93;;
20421;SDS011;10370;53.102;18.034;2023-02-12T22:50:39;32.93;;;14.00;;
20421;SDS011;10370;53.102;18.034;2023-02-12T22:56:07;36.20;;;15.13;;
20421;SDS011;10370;53.102;18.034;2023-02-12T23:01:32;34.53;;;14.37;;
20421;SDS011;10370;53.102;18.034;2023-02-12T23:07:00;35.17;;;14.80;;
20421;SDS011;10370;53.102;18.034;2023-02-12T23:12:25;39.17;;;14.83;;
20421;SDS011;10370;53.102;18.034;2023-02-12T23:17:50;38.80;;;15.27;;
20421;SDS011;10370;53.102;18.034;2023-02-12T23:23:15;40.37;;;14.07;;
20421;SDS011;10370;53.102;18.034;2023-02-12T23:28:41;40.43;;;15.50;;
20421;SDS011;10370;53.102;18.034;2023-02-12T23:34:06;39.83;;;17.17;;
20421;SDS011;10370;53.102;18.034;2023-02-12T23:39:31;37.37;;;14.77;;
20421;SDS011;10370;53.102;18.034;2023-02-12T23:44:56;37.90;;;15.93;;
20421;SDS011;10370;53.102;18.034;2023-02-12T23:50:21;37.27;;;14.93;;
20421;SDS011;10370;53.102;18.034;2023-02-12T23:55:47;36.30;;;15.33;;
